Cataldo, ID

4:50 PM PDT on August 29, 2014 (GMT -0700)
Medimont area | Change Station
CLOSE
Current Station
Personal Weather Station
Location: Cataldo, ID
Elevation: 2172 ft
Nearby Weather Stations

Elev 2172 ft 47.49 °N, 116.56 °W | Updated 5 minutes ago

Partly Cloudy
Partly Cloudy
81.5 °F
Feels Like 80 °F
N
12.0
Wind Variable Wind from WSW
Gusts 21.0 mph

Today
High -- | Low -- °F
--% Chance of Precip.
Yesterday
High -- | Low -- °F
Precip. -- in
6:00 AM 7:31 PM
Waxing Crescent, 17% visible
Pressure 29.81 in
Visibility 10.0 miles
Clouds Clear
Heat Index 80 °F
Dew Point 43 °F
Humidity 26%
Rainfall 0.00 in
Snow Depth Not available.
UV 3 out of 12
Pollen 7.30 out of 12
Air Quality Not available.
Flu Activity Not available.
METAR KCOE 292335Z AUTO 21009KT 10SM CLR 26/03 A2981 RMK AO1

More Conditions Fewer Conditions

Pressure 29.81 in
Visibility 10.0 miles
Clouds Clear
Heat Index 80 °F
Dew Point 43 °F
Humidity 26%
Rainfall 0.00 in
Snow Depth Not available.
UV 3 out of 12
Pollen 7.30 out of 12
Air Quality Not available.
Flu Activity Not available.
METAR KCOE 292335Z AUTO 21009KT 10SM CLR 26/03 A2981 RMK AO1

More Conditions Fewer Conditions

10-Day Weather Forecast

Almanac

Astronomy

Aug. 29, 2014 Rise Set
Actual Time 6:00 AM PDT 7:31 PM PDT
Civil Twilight 5:28 AM PDT 8:03 PM PDT
Nautical Twilight 4:49 AM PDT 8:42 PM PDT
Astronomical Twilight 4:06 AM PDT 9:24 PM PDT
Moon 10:13 AM PDT 9:11 PM PDT
Length of Visible Light 14h 35m
Length of Day
13h 31m
Tomorrow will be 3m 17s shorter.
Waxing Crescent, 17% of the Moon is Illuminated
Today
Waxing Crescent
Sep 2
First Quarter
Sep 8
Full
Sep 15
Last Quarter
Sep 24
New

Today's Extremes

State Highs State Lows

Community

WunderPhotos

Upload Photos

1,748,379 photos uploaded!

Nearby

Snow Depth

Station Depth Elevation
Sunset 0 in 5540 ft
Humboldt Gulch 2 in 4250 ft
Mosquito Ridge 0 in 5200 ft
Schweitzer Basin 0 in 6090 ft
Myrtle Creek 0 in 3520 ft

Earthquake Activity

City Distance Mag. Time & Date
No recent earthquake activity has been reported nearby.
Minimum magnitude displayed is 2.5.

Coastal Water Temperatures

Place Temperature
No Stations Reporting

Nearby Weather Stations